サル島 の空港の天気 - METARとTAF

アミルカル・カブラル国際空港 ( GVAC / SID ) - カーボベルデ サル島
飛行場実況気象(Metar)
観測時間04/21 15:00 CVT (04/21 16:00 UTC)
風向・風速北東 7m/s
視程10km以上
天気現象
全天の8割程度の雲 雲底高度 460m
気温25℃
湿度57%
気圧1013hPa
METARGVAC 211600Z 05013KT 9999 BKN015 25/16 Q1013 NOSIG
過去の天気等 Google飛行場航空写真 Wunderground天気予報

過去48時間のMETAR

飛行場予報(TAF)
発表時間: 4/21 10:00 CVT (4/21 11:00 UTC)
予報対象時間: 21日11時 CVT ~ 22日17時 CVT
風向・風速北北東 7m/s
視程10km以上
全天の4割程度の雲 雲底高度 430m
TAF GVAC 211100Z 2112/2218 03014KT 9999 SCT014